Time;durP1;ratioP1;P1;durP2;ratioP2;P2;SDS_P1;SDS_P2;PMS_P1;PMS_P2;Temp;Humidity;BMP_temperature;BMP_pressure;BME280_temperature;BME280_humidity;BME280_pressure;Samples;Min_cycle;Max_cycle;Signal;HPM_P1;HPM_P2
2022/01/20 00:00:19;;;;;;;15.93;10.63;;;;;;;2.46;77.20;100109.39;1658519;86;21055;-78
2022/01/20 00:02:59;;;;;;;14.63;9.80;;;;;;;2.43;77.27;100099.08;1664262;86;21490;-75
2022/01/20 00:06:19;;;;;;;12.83;9.40;;;;;;;2.38;77.44;100100.43;1664427;86;21068;-75
2022/01/20 00:08:14;;;;;;;14.07;9.13;;;;;;;2.33;77.63;100098.72;1663205;86;22000;-80
2022/01/20 00:27:14;;;;;;;12.43;8.93;;;;;;;2.21;78.92;100094.07;1664660;86;20989;-75
2022/01/20 00:30:19;;;;;;;10.97;8.43;;;;;;;2.21;78.94;100095.36;1664330;86;21029;-75
2022/01/20 00:37:30;;;;;;;10.23;7.50;;;;;;;2.22;79.31;100095.81;1581505;90;21131;-77
2022/01/20 00:39:58;;;;;;;10.53;7.00;;;;;;;2.21;79.32;100083.73;1581510;90;21063;-74
2022/01/20 00:42:26;;;;;;;9.60;7.23;;;;;;;2.21;79.42;100088.90;1592935;90;21054;-76
2022/01/20 00:44:54;;;;;;;11.43;7.40;;;;;;;2.19;79.62;100086.78;1586236;90;21067;-75
2022/01/20 00:47:21;;;;;;;10.07;7.30;;;;;;;2.19;79.63;100074.27;1586080;90;21248;-75
2022/01/20 00:49:49;;;;;;;8.97;6.80;;;;;;;2.17;79.79;100082.05;1586026;90;21541;-75
2022/01/20 00:52:16;;;;;;;9.37;6.57;;;;;;;2.15;79.86;100077.32;1586064;90;20987;-75
2022/01/20 00:54:43;;;;;;;9.97;7.03;;;;;;;2.14;80.05;100083.81;1586406;90;21063;-75
2022/01/20 00:57:10;;;;;;;8.47;6.60;;;;;;;2.13;80.23;100085.95;1586225;90;21066;-75
2022/01/20 00:59:38;;;;;;;8.37;6.40;;;;;;;2.11;80.44;100069.62;1586295;90;21229;-75
2022/01/20 01:02:09;;;;;;;9.30;6.50;;;;;;;2.09;80.54;100078.67;1586064;90;21634;-78
2022/01/20 01:04:39;;;;;;;7.63;5.80;;;;;;;2.09;80.73;100067.48;1586215;90;21091;-75
2022/01/20 01:09:53;;;;;;;11.60;5.93;;;;;;;2.07;81.08;100073.94;1586514;90;21523;-76
2022/01/20 01:12:32;;;;;;;8.00;5.30;;;;;;;2.08;81.22;100070.50;1616569;87;21175;-76
2022/01/20 01:14:52;;;;;;;7.13;4.90;;;;;;;2.08;81.28;100072.20;1640084;87;21037;-76
2022/01/20 01:22:31;;;;;;;7.17;5.57;;;;;;;2.11;81.65;100073.06;1640702;87;21062;-76
2022/01/20 01:25:02;;;;;;;7.33;5.10;;;;;;;2.11;81.69;100081.25;1640790;87;21258;-76
2022/01/20 01:27:34;;;;;;;6.03;4.80;;;;;;;2.11;81.90;100077.37;1640406;87;21575;-76
2022/01/20 01:30:08;;;;;;;7.33;5.33;;;;;;;2.10;81.94;100073.05;1641182;85;20922;-78
2022/01/20 01:32:47;;;;;;;7.57;5.10;;;;;;;2.10;82.11;100064.01;1640507;85;21006;-76
2022/01/20 01:35:06;;;;;;;8.13;5.37;;;;;;;2.08;82.18;100069.20;1640051;87;21054;-76
2022/01/20 01:40:03;;;;;;;6.43;4.57;;;;;;;2.07;82.33;100057.57;1640724;87;21520;-77
2022/01/20 01:42:38;;;;;;;8.70;5.20;;;;;;;2.06;82.57;100047.67;1640575;85;21066;-75
2022/01/20 01:45:20;;;;;;;5.60;4.37;;;;;;;2.07;82.66;100047.23;1640650;85;21033;-76
2022/01/20 01:47:48;;;;;;;5.43;4.30;;;;;;;2.07;82.72;100036.89;1640548;87;21108;-76
2022/01/20 01:50:17;;;;;;;5.58;4.08;;;;;;;2.06;82.79;100025.70;1640537;87;21121;-76
2022/01/20 01:52:44;;;;;;;5.33;4.10;;;;;;;2.06;83.01;100027.43;1632504;85;21586;-76
2022/01/20 01:55:12;;;;;;;5.07;4.33;;;;;;;2.05;83.09;100029.58;1640797;87;21033;-75
2022/01/20 01:57:41;;;;;;;5.72;3.83;;;;;;;2.05;83.25;100020.12;1640764;85;24637;-75
2022/01/20 02:00:12;;;;;;;6.10;3.90;;;;;;;2.05;83.38;100024.41;1640828;87;21057;-76
2022/01/20 02:02:45;;;;;;;5.43;4.53;;;;;;;2.04;83.53;100035.19;1640660;87;21055;-76
2022/01/20 02:05:23;;;;;;;5.90;3.87;;;;;;;2.04;83.64;100019.67;1640640;87;21057;-75
2022/01/20 02:18:59;;;;;;;5.47;3.97;;;;;;;2.03;84.53;100021.85;1640384;87;21037;-76
2022/01/20 02:21:38;;;;;;;6.13;4.10;;;;;;;2.04;84.48;100001.58;1622358;87;21097;-76
2022/01/20 02:24:06;;;;;;;4.70;3.63;;;;;;;2.06;84.68;100020.97;1639413;87;20970;-75
2022/01/20 02:26:34;;;;;;;4.60;3.80;;;;;;;2.07;84.81;100008.02;1640640;87;21057;-75
2022/01/20 02:29:01;;;;;;;4.83;3.53;;;;;;;2.09;84.85;100010.59;1640772;87;21167;-75
2022/01/20 02:31:28;;;;;;;3.87;3.33;;;;;;;2.10;84.96;100004.55;1640614;87;20977;-73
2022/01/20 02:33:58;;;;;;;3.63;3.13;;;;;;;2.10;85.03;100020.91;1640495;87;21022;-75
2022/01/20 02:36:27;;;;;;;4.00;2.97;;;;;;;2.10;85.15;100000.23;1640760;87;21346;-74
2022/01/20 02:39:02;;;;;;;4.03;2.65;;;;;;;2.13;85.19;100001.93;1641081;85;27310;-75
2022/01/20 02:46:56;;;;;;;2.83;2.33;;;;;;;2.09;85.25;100015.77;1640621;87;21045;-74
2022/01/20 02:49:23;;;;;;;3.00;2.40;;;;;;;2.07;85.37;100003.28;1640811;87;21106;-74
2022/01/20 02:51:54;;;;;;;2.77;2.43;;;;;;;2.07;85.53;100008.02;1640464;87;21717;-78
2022/01/20 02:54:22;;;;;;;3.55;3.15;;;;;;;2.09;85.58;100000.26;1640904;87;21923;-74
2022/01/20 02:56:50;;;;;;;3.50;2.70;;;;;;;2.09;85.69;100002.84;1640430;87;21025;-78
2022/01/20 02:59:17;;;;;;;3.00;2.43;;;;;;;2.09;85.81;100006.28;1632644;85;21068;-76
2022/01/20 03:01:44;;;;;;;3.37;2.80;;;;;;;2.11;85.80;100006.28;1640588;87;21053;-73
2022/01/20 03:04:11;;;;;;;4.87;3.33;;;;;;;2.12;85.79;100002.81;1640676;87;21108;-74
2022/01/20 03:06:39;;;;;;;3.87;2.93;;;;;;;2.13;85.88;100009.24;1640699;87;21868;-74
2022/01/20 03:09:06;;;;;;;5.37;3.43;;;;;;;2.15;86.07;99997.17;1640447;87;21049;-74
2022/01/20 03:11:34;;;;;;;6.23;3.50;;;;;;;2.18;86.10;99989.38;1640800;87;21049;-74
2022/01/20 03:14:01;;;;;;;6.37;3.33;;;;;;;2.20;86.01;99995.84;1640790;87;21042;-74
2022/01/20 03:16:29;;;;;;;6.30;3.80;;;;;;;2.22;86.03;99998.84;1632489;85;21594;-74
2022/01/20 03:18:56;;;;;;;8.03;3.93;;;;;;;2.25;86.14;99987.61;1640804;87;21108;-74
2022/01/20 03:21:27;;;;;;;6.47;3.77;;;;;;;2.28;86.05;99994.48;1640509;87;21089;-74
2022/01/20 03:23:54;;;;;;;8.90;3.58;;;;;;;2.29;86.03;99985.41;1640573;87;21066;-74
2022/01/20 03:26:22;;;;;;;8.80;4.10;;;;;;;2.31;86.00;99974.61;1640807;87;21074;-73
2022/01/20 03:28:50;;;;;;;8.67;3.90;;;;;;;2.32;86.06;99972.88;1640744;87;21519;-74
2022/01/20 03:31:19;;;;;;;4.77;2.83;;;;;;;2.32;86.03;99974.17;1640539;87;21095;-74
2022/01/20 03:33:46;;;;;;;8.23;3.70;;;;;;;2.31;85.95;99974.61;1640602;87;21534;-78
2022/01/20 03:36:13;;;;;;;6.00;3.17;;;;;;;2.32;85.88;99989.25;1632727;87;21049;-78
2022/01/20 03:38:45;;;;;;;7.47;3.50;;;;;;;2.31;85.86;99981.52;1640697;87;21026;-74
2022/01/20 03:41:13;;;;;;;8.40;4.17;;;;;;;2.30;85.84;99994.89;1640767;87;21630;-76
2022/01/20 03:43:39;;;;;;;6.23;3.30;;;;;;;2.31;85.86;99985.41;1640587;87;21232;-74
2022/01/20 03:46:12;;;;;;;9.50;3.70;;;;;;;2.32;85.94;99989.25;1640451;87;20953;-74
2022/01/20 03:48:39;;;;;;;8.07;3.33;;;;;;;2.31;86.04;99995.75;1640863;85;21017;-74
2022/01/20 03:51:04;;;;;;;8.27;3.77;;;;;;;2.31;86.05;100009.53;1640472;87;21006;-74
2022/01/20 03:53:38;;;;;;;9.23;3.63;;;;;;;2.32;85.98;99986.66;1640583;87;21622;-74
2022/01/20 03:56:07;;;;;;;10.20;3.90;;;;;;;2.30;86.03;99991.42;1640477;87;21607;-75
2022/01/20 03:58:39;;;;;;;9.23;3.83;;;;;;;2.30;86.08;99989.72;1639610;87;21026;-74
2022/01/20 04:01:08;;;;;;;9.93;4.17;;;;;;;2.30;86.09;100001.77;1640616;87;21038;-74
2022/01/20 04:03:36;;;;;;;14.33;4.03;;;;;;;2.30;86.10;99987.13;1638344;87;21567;-74
2022/01/20 04:06:06;;;;;;;9.30;3.10;;;;;;;2.30;86.07;100004.35;1640242;85;21045;-74
2022/01/20 04:08:45;;;;;;;15.27;4.27;;;;;;;2.30;86.27;100013.00;1640244;87;21940;-75
2022/01/20 04:11:21;;;;;;;9.03;3.33;;;;;;;2.32;86.15;100002.63;1640684;87;21045;-74
2022/01/20 04:13:50;;;;;;;8.70;2.70;;;;;;;2.30;86.05;100002.66;1640546;87;21045;-74
2022/01/20 04:16:33;;;;;;;7.58;3.40;;;;;;;2.31;85.99;99998.33;1640208;87;21052;-74
2022/01/20 04:18:56;;;;;;;6.03;2.70;;;;;;;2.33;86.01;100012.08;1639338;87;21097;-74
2022/01/20 04:21:29;;;;;;;10.13;2.83;;;;;;;2.36;86.00;100015.96;1640721;87;21288;-74
2022/01/20 04:23:59;;;;;;;10.20;3.00;;;;;;;2.38;85.94;99999.97;1640496;87;21113;-74
2022/01/20 04:26:28;;;;;;;7.95;2.35;;;;;;;2.41;85.98;100015.04;1640895;87;21021;-74
2022/01/20 04:28:56;;;;;;;14.80;3.20;;;;;;;2.43;85.89;99999.48;1640607;87;21034;-74
2022/01/20 04:31:27;;;;;;;;;;;;;;;2.48;85.79;100014.97;1643630;85;21544;-74
2022/01/20 04:33:58;;;;;;;8.07;2.73;;;;;;;2.50;85.71;100007.62;1640553;87;21968;-74
2022/01/20 04:36:32;;;;;;;8.53;2.30;;;;;;;2.51;85.65;100016.23;1641004;87;21090;-75
2022/01/20 04:39:01;;;;;;;10.40;2.67;;;;;;;2.51;85.63;100009.77;1640595;87;21013;-74
2022/01/20 04:41:30;;;;;;;10.80;2.60;;;;;;;2.50;85.55;100017.97;1640932;87;21057;-79
2022/01/20 04:44:01;;;;;;;10.45;2.42;;;;;;;2.50;85.49;100013.23;1640815;85;21587;-74
2022/01/20 04:46:41;;;;;;;12.27;2.73;;;;;;;2.49;85.43;100005.88;1640851;87;21184;-73
2022/01/20 04:57:22;;;;;;;11.90;2.43;;;;;;;2.35;84.95;100016.37;1640927;87;21061;-76
2022/01/20 04:59:52;;;;;;;11.13;2.30;;;;;;;2.29;84.95;100013.84;1640586;87;21951;-74
2022/01/20 05:02:22;;;;;;;13.75;2.30;;;;;;;2.25;84.97;100016.06;1641409;87;21007;-74
2022/01/20 05:04:59;;;;;;;12.75;2.20;;;;;;;2.21;84.90;100007.89;1641084;85;21038;-74
2022/01/20 05:07:35;;;;;;;8.80;2.17;;;;;;;2.17;84.86;100001.90;1639472;87;21034;-77
2022/01/20 05:10:07;;;;;;;11.47;2.10;;;;;;;2.16;84.91;100022.58;1640860;87;21061;-74
2022/01/20 05:13:01;;;;;;;11.83;2.33;;;;;;;2.15;84.92;100010.09;1640846;87;21168;-75
2022/01/20 05:15:06;;;;;;;14.73;2.53;;;;;;;2.14;84.83;100022.61;1639467;87;21018;-74
2022/01/20 05:17:34;;;;;;;;;;;;;;;2.12;84.73;100015.30;1643261;87;21041;-74
2022/01/20 05:20:02;;;;;;;9.27;2.33;;;;;;;2.12;84.69;100022.20;1640578;87;20375;-74
2022/01/20 05:22:29;;;;;;;14.13;2.40;;;;;;;2.09;84.63;100020.50;1640837;87;21074;-75
2022/01/20 05:24:58;;;;;;;11.90;2.00;;;;;;;2.08;84.54;100024.38;1640538;87;21202;-74
2022/01/20 05:27:26;;;;;;;16.80;2.50;;;;;;;2.08;84.51;100036.01;1640713;87;21057;-74
2022/01/20 05:29:55;;;;;;;12.37;2.37;;;;;;;2.06;84.47;100015.36;1640664;87;21053;-75
2022/01/20 05:32:23;;;;;;;18.52;2.42;;;;;;;2.07;84.39;100017.50;1640962;87;21058;-74
2022/01/20 05:34:50;;;;;;;8.67;2.07;;;;;;;2.03;84.24;100000.31;1640694;87;21133;-74
2022/01/20 05:37:18;;;;;;;7.60;2.03;;;;;;;2.02;84.30;100017.53;1640751;87;22119;-74
2022/01/20 05:39:45;;;;;;;9.07;1.93;;;;;;;2.00;84.15;100005.92;1632644;85;21597;-74
2022/01/20 05:42:14;;;;;;;14.90;2.70;;;;;;;1.99;84.08;100035.21;1640821;85;21023;-73
2022/01/20 05:44:44;;;;;;;8.87;1.80;;;;;;;1.97;83.99;99999.50;1640566;85;21006;-74
2022/01/20 05:47:12;;;;;;;9.47;1.70;;;;;;;1.96;83.93;100018.88;1640941;87;21064;-77
2022/01/20 05:49:50;;;;;;;10.83;1.63;;;;;;;1.92;83.84;100009.01;1639390;87;21984;-74
2022/01/20 05:52:19;;;;;;;10.47;1.87;;;;;;;1.90;83.75;100015.91;1640737;87;21077;-75
2022/01/20 05:54:46;;;;;;;10.83;2.13;;;;;;;1.87;83.71;100008.62;1640582;87;21037;-74
2022/01/20 05:57:13;;;;;;;9.70;1.70;;;;;;;1.84;83.64;100007.36;1640783;87;20965;-74
2022/01/20 05:59:42;;;;;;;12.43;1.77;;;;;;;1.79;83.53;100017.72;1640519;85;21026;-76
2022/01/20 06:02:27;;;;;;;7.33;1.70;;;;;;;1.77;83.54;99997.08;1640872;87;21591;-74
2022/01/20 06:04:42;;;;;;;6.13;1.50;;;;;;;1.74;83.47;99993.64;1639856;85;21563;-78
2022/01/20 06:07:09;;;;;;;7.43;1.87;;;;;;;1.71;83.37;99987.20;1640761;87;21021;-76
2022/01/20 06:09:36;;;;;;;6.53;1.20;;;;;;;1.67;83.28;99991.98;1640531;87;21081;-74
2022/01/20 06:12:05;;;;;;;7.73;1.40;;;;;;;1.63;83.25;99984.67;1640794;87;21052;-74
2022/01/20 06:14:32;;;;;;;8.33;1.47;;;;;;;1.61;83.24;99986.43;1640564;87;21104;-74
2022/01/20 06:16:59;;;;;;;5.17;1.10;;;;;;;1.56;83.19;99982.58;1640723;87;21033;-76
2022/01/20 06:19:26;;;;;;;10.07;1.30;;;;;;;1.53;83.13;99996.81;1640540;87;21049;-74
2022/01/20 06:21:53;;;;;;;5.47;1.40;;;;;;;1.51;83.14;99980.89;1640506;87;21053;-74
2022/01/20 06:24:20;;;;;;;9.10;1.50;;;;;;;1.50;83.13;99977.46;1640588;87;21018;-74
2022/01/20 06:26:47;;;;;;;7.10;1.50;;;;;;;1.49;83.10;99956.36;1640837;87;21868;-74
2022/01/20 06:29:14;;;;;;;8.70;1.20;;;;;;;1.50;83.07;99952.07;1640511;87;21014;-75
2022/01/20 06:31:42;;;;;;;7.33;1.40;;;;;;;1.48;83.04;99943.47;1640782;87;21026;-75
2022/01/20 06:34:10;;;;;;;7.87;1.30;;;;;;;1.49;82.98;99927.09;1640788;87;21090;-74
2022/01/20 06:36:37;;;;;;;7.77;1.47;;;;;;;1.49;82.86;99924.07;1640554;87;21117;-77
2022/01/20 06:39:05;;;;;;;13.83;1.70;;;;;;;1.49;82.76;99909.87;1640747;87;22006;-74
2022/01/20 06:41:37;;;;;;;10.37;1.57;;;;;;;1.48;82.63;99904.73;1640897;85;22224;-74
2022/01/20 06:44:04;;;;;;;9.40;1.57;;;;;;;1.46;82.54;99903.44;1611149;87;21081;-74
2022/01/20 06:46:32;;;;;;;11.37;1.77;;;;;;;1.46;82.44;99893.11;1640775;87;21022;-74
2022/01/20 06:49:00;;;;;;;6.63;1.50;;;;;;;1.44;82.44;99876.79;1640378;85;21623;-74
2022/01/20 06:51:29;;;;;;;7.90;1.93;;;;;;;1.46;82.31;99895.69;1640477;87;21853;-74
2022/01/20 06:53:56;;;;;;;12.33;2.00;;;;;;;1.47;82.28;99885.80;1640502;87;21053;-74
2022/01/20 06:56:23;;;;;;;9.83;1.70;;;;;;;1.47;82.28;99900.41;1640902;87;21061;-74
2022/01/20 06:58:50;;;;;;;12.63;2.37;;;;;;;1.46;82.27;99902.14;1640477;87;21055;-74
2022/01/20 07:01:18;;;;;;;15.60;2.20;;;;;;;1.47;82.29;99927.13;1640759;87;21105;-74
2022/01/20 07:03:47;;;;;;;11.97;2.37;;;;;;;1.49;82.36;99930.97;1640465;87;21527;-74
2022/01/20 07:06:14;;;;;;;13.43;2.30;;;;;;;1.51;82.43;99921.49;1640770;87;21308;-74
2022/01/20 07:08:44;;;;;;;13.50;2.37;;;;;;;1.53;82.47;99919.77;1639305;85;21522;-74
2022/01/20 07:11:13;;;;;;;9.77;2.30;;;;;;;1.58;82.51;99900.33;1640796;87;21500;-75
2022/01/20 07:13:39;;;;;;;10.60;2.30;;;;;;;1.59;82.47;99919.70;1632933;85;21539;-74
2022/01/20 07:16:07;;;;;;;16.23;2.70;;;;;;;1.56;82.52;99897.34;1640704;87;21112;-75
2022/01/20 07:18:34;;;;;;;9.03;1.90;;;;;;;1.52;82.44;99896.95;1640416;87;21042;-75
2022/01/20 07:21:01;;;;;;;37.77;9.13;;;;;;;1.49;82.60;99916.77;1632861;87;21053;-75
2022/01/20 07:23:30;;;;;;;20.00;4.20;;;;;;;1.45;82.82;99988.25;1640430;85;21006;-75
2022/01/20 07:25:58;;;;;;;5.27;2.10;;;;;;;1.41;82.72;100023.98;1640465;87;21523;-75
2022/01/20 07:28:26;;;;;;;4.73;1.50;;;;;;;1.04;81.77;100037.08;1640504;87;21126;-75
2022/01/20 07:30:53;;;;;;;1.03;0.50;;;;;;;0.62;81.99;100045.39;1640751;87;21458;-76
2022/01/20 07:33:20;;;;;;;1.70;0.60;;;;;;;0.37;82.24;100002.47;1640607;87;21014;-76
2022/01/20 07:35:49;;;;;;;1.30;0.30;;;;;;;0.12;82.51;100021.84;1641065;85;21054;-76
2022/01/20 07:38:17;;;;;;;1.23;0.57;;;;;;;-0.05;82.88;100026.14;1640396;87;21084;-77
2022/01/20 07:40:44;;;;;;;2.87;0.70;;;;;;;-0.15;83.11;100035.57;1640756;87;21873;-75
2022/01/20 07:43:11;;;;;;;1.27;0.40;;;;;;;-0.24;83.37;100031.27;1640529;87;21096;-76
2022/01/20 07:45:46;;;;;;;3.90;1.20;;;;;;;-0.29;83.46;100021.39;1640575;87;21049;-76
2022/01/20 07:48:24;;;;;;;3.93;0.67;;;;;;;-0.31;83.62;100017.95;1640383;85;21463;-76
2022/01/20 07:50:53;;;;;;;1.90;1.03;;;;;;;-0.31;83.75;100003.78;1640028;86;21049;-76
2022/01/20 07:53:22;;;;;;;7.67;1.23;;;;;;;-0.29;83.81;100008.95;1640816;85;22128;-75
2022/01/20 07:55:50;;;;;;;3.17;0.90;;;;;;;-0.25;83.87;100004.22;1640723;87;20946;-76
2022/01/20 07:58:18;;;;;;;5.27;1.10;;;;;;;-0.19;83.92;100008.51;1640428;87;21518;-76
2022/01/20 08:00:46;;;;;;;6.60;1.20;;;;;;;-0.14;83.94;100021.85;1640700;87;21085;-76
2022/01/20 08:03:13;;;;;;;4.60;0.80;;;;;;;-0.10;83.90;100018.84;1640564;87;21097;-76
2022/01/20 08:05:43;;;;;;;4.73;0.90;;;;;;;-0.06;83.90;100037.28;1640458;87;21089;-76
2022/01/20 08:08:10;;;;;;;4.00;1.27;;;;;;;-0.02;83.95;100027.43;1640461;87;20926;-76
2022/01/20 08:10:38;;;;;;;5.93;1.60;;;;;;;0.01;83.93;100024.84;1640682;87;21026;-75
2022/01/20 08:13:05;;;;;;;3.10;0.83;;;;;;;0.03;84.00;100029.58;1632977;85;21121;-76
2022/01/20 08:15:33;;;;;;;3.70;0.80;;;;;;;0.06;84.01;100026.15;1640811;87;21470;-75
2022/01/20 08:18:02;;;;;;;3.10;0.83;;;;;;;0.09;84.01;100024.86;1640432;87;21464;-75
2022/01/20 08:20:30;;;;;;;4.50;0.87;;;;;;;0.11;83.98;100014.09;1640425;87;21058;-76
2022/01/20 08:23:00;;;;;;;4.77;1.57;;;;;;;0.12;83.90;100023.13;1640816;85;21086;-76
2022/01/20 08:25:29;;;;;;;8.23;1.43;;;;;;;0.15;83.76;100037.73;1640876;87;21050;-76
2022/01/20 08:27:57;;;;;;;6.67;1.17;;;;;;;0.14;83.69;100027.86;1640384;87;21061;-76
2022/01/20 08:30:26;;;;;;;8.57;1.53;;;;;;;0.14;83.59;100041.14;1640609;87;21254;-75
2022/01/20 08:32:55;;;;;;;9.45;1.07;;;;;;;0.11;83.46;100032.12;1640580;86;21038;-75
2022/01/20 08:35:32;;;;;;;5.80;1.43;;;;;;;0.10;83.46;100036.43;1640485;85;21049;-75
2022/01/20 08:38:00;;;;;;;4.45;1.07;;;;;;;0.10;83.36;100049.75;1640619;85;21094;-75
2022/01/20 08:40:27;;;;;;;5.97;1.30;;;;;;;0.10;83.31;100045.89;1640496;87;21101;-75
2022/01/20 08:42:57;;;;;;;5.27;1.03;;;;;;;0.08;83.22;100053.60;1640451;87;21234;-76
2022/01/20 08:45:29;;;;;;;7.63;1.60;;;;;;;0.04;82.96;100037.73;1640436;87;21048;-74
2022/01/20 08:47:59;;;;;;;7.07;1.23;;;;;;;0.01;82.84;100061.36;1640449;87;21033;-75
2022/01/20 08:50:30;;;;;;;6.90;2.47;;;;;;;0.00;82.79;100114.61;1639769;87;21022;-75
2022/01/20 08:52:59;;;;;;;5.37;1.35;;;;;;;-0.03;82.50;100074.64;1640609;87;26782;-75
2022/01/20 08:55:27;;;;;;;4.30;0.87;;;;;;;-0.09;82.23;100071.63;1640554;87;21875;-75
2022/01/20 08:57:59;;;;;;;3.27;1.10;;;;;;;-0.15;82.20;100092.67;1640481;87;21069;-75
2022/01/20 09:00:29;;;;;;;7.37;1.70;;;;;;;-0.26;82.06;100092.22;1640839;87;21034;-75
2022/01/20 09:03:02;;;;;;;6.23;1.13;;;;;;;-0.33;82.09;100099.95;1640518;87;21466;-76
2022/01/20 09:05:31;;;;;;;3.73;1.10;;;;;;;-0.43;82.13;100096.91;1640775;87;21081;-75
2022/01/20 09:08:06;;;;;;;4.47;1.17;;;;;;;-0.57;82.11;100105.88;1640372;85;21954;-77
2022/01/20 09:10:38;;;;;;;7.92;2.05;;;;;;;-0.65;82.24;100123.00;1640804;87;21089;-76
2022/01/20 09:15:48;;;;;;;6.07;1.77;;;;;;;-0.65;82.39;100142.31;1640815;87;21029;-76
2022/01/20 09:18:34;;;;;;;5.03;1.80;;;;;;;-0.64;82.41;100141.45;1640675;87;21424;-75
2022/01/20 09:21:01;;;;;;;4.80;1.50;;;;;;;-0.65;82.28;100144.89;1640892;87;21161;-75
2022/01/20 09:23:30;;;;;;;5.03;0.80;;;;;;;-0.65;82.33;100158.61;1640595;87;21601;-75
2022/01/20 09:25:57;;;;;;;7.80;1.50;;;;;;;-0.65;82.02;100156.47;1640784;87;21037;-76
2022/01/20 09:28:26;;;;;;;4.60;1.20;;;;;;;-0.61;81.95;100163.33;1640595;87;21050;-78
2022/01/20 09:30:57;;;;;;;5.80;1.03;;;;;;;-0.55;81.95;100165.53;1640839;87;21113;-78
2022/01/20 09:33:26;;;;;;;4.70;1.53;;;;;;;-0.50;81.83;100173.25;1640537;87;21319;-76
2022/01/20 09:35:54;;;;;;;6.37;1.00;;;;;;;-0.44;81.68;100188.75;1640773;87;21003;-76
2022/01/20 09:38:21;;;;;;;3.97;0.90;;;;;;;-0.42;81.52;100183.59;1640626;87;21030;-76
2022/01/20 09:40:50;;;;;;;3.60;0.67;;;;;;;-0.42;81.29;100192.60;1640906;87;21034;-76
2022/01/20 09:43:18;;;;;;;3.67;0.80;;;;;;;-0.32;81.33;100201.66;1640685;87;21041;-75
2022/01/20 09:45:55;;;;;;;3.03;0.90;;;;;;;-0.24;81.23;100206.85;1640830;87;21106;-75
2022/01/20 09:48:24;;;;;;;3.77;1.03;;;;;;;-0.16;81.10;100206.89;1640579;87;21492;-75
2022/01/20 09:51:13;;;;;;;2.50;0.97;;;;;;;-0.12;80.96;100204.73;1640179;87;21022;-76
2022/01/20 09:53:42;;;;;;;8.07;1.60;;;;;;;-0.04;80.73;100206.48;1639359;87;21033;-76
2022/01/20 09:56:23;;;;;;;4.43;0.93;;;;;;;0.07;80.69;100204.38;1640161;87;21546;-76
2022/01/20 09:58:51;;;;;;;4.63;0.93;;;;;;;0.17;80.53;100211.28;1640506;87;22055;-76
2022/01/20 10:01:43;;;;;;;11.23;3.47;;;;;;;0.21;80.23;100206.55;1640730;87;21045;-75
2022/01/20 10:04:33;;;;;;;4.87;1.30;;;;;;;0.27;80.13;100213.42;1640387;87;21057;-76
2022/01/20 10:07:09;;;;;;;1.65;0.93;;;;;;;0.35;79.72;100211.72;1640763;87;21049;-76
2022/01/20 10:09:47;;;;;;;3.73;1.40;;;;;;;0.38;79.59;100223.33;1640671;85;21516;-76
2022/01/20 10:12:19;;;;;;;2.47;1.00;;;;;;;0.38;79.36;100217.73;1638720;87;21122;-76
2022/01/20 10:14:54;;;;;;;4.73;2.30;;;;;;;0.58;79.67;100222.94;1640190;85;21518;-76
2022/01/20 10:17:27;;;;;;;4.37;1.53;;;;;;;0.61;79.38;100221.65;1623570;87;21079;-76
2022/01/20 10:20:00;;;;;;;6.10;1.60;;;;;;;0.76;79.47;100232.83;1640519;87;20990;-76
2022/01/20 10:22:30;;;;;;;3.53;1.30;;;;;;;0.89;79.55;100208.31;1640344;87;21045;-76
2022/01/20 10:25:12;;;;;;;6.43;1.27;;;;;;;1.05;79.06;100212.16;1640362;85;21362;-75
2022/01/20 10:28:00;;;;;;;2.97;0.90;;;;;;;1.24;78.92;100214.28;1640588;87;21085;-76
2022/01/20 10:30:30;;;;;;;4.55;1.20;;;;;;;1.33;78.46;100208.67;1640630;87;21086;-75
2022/01/20 10:33:01;;;;;;;3.83;1.00;;;;;;;1.38;78.09;100215.54;1640901;87;21599;-75
2022/01/20 10:35:34;;;;;;;4.23;1.17;;;;;;;1.45;77.85;100206.92;1640536;85;21010;-76
2022/01/20 10:38:14;;;;;;;3.80;1.20;;;;;;;1.53;77.63;100204.73;1632781;85;21137;-76
2022/01/20 10:40:50;;;;;;;4.07;1.00;;;;;;;1.61;77.36;100204.72;1640051;87;21029;-76
2022/01/20 10:43:28;;;;;;;4.00;1.33;;;;;;;1.64;76.75;100202.13;1640888;87;21074;-76
2022/01/20 10:46:12;;;;;;;4.57;1.10;;;;;;;1.68;76.58;100196.50;1640541;87;21045;-75
2022/01/20 10:48:40;;;;;;;4.50;0.90;;;;;;;1.78;76.35;100202.92;1635244;87;21077;-75
2022/01/20 10:51:22;;;;;;;3.50;0.83;;;;;;;1.81;75.73;100214.97;1640536;87;21137;-74
2022/01/20 10:54:11;;;;;;;5.17;1.20;;;;;;;1.87;75.47;100204.59;1640739;85;22161;-74
2022/01/20 10:56:52;;;;;;;4.33;1.13;;;;;;;1.84;74.96;100209.78;1640532;87;21101;-76
2022/01/20 10:59:23;;;;;;;7.50;1.17;;;;;;;1.75;74.61;100200.35;1632756;87;21554;-74
2022/01/20 11:02:06;;;;;;;4.80;1.17;;;;;;;1.77;74.55;100197.74;1640688;87;21542;-74
2022/01/20 11:04:37;;;;;;;5.37;1.47;;;;;;;1.93;74.44;100201.12;1640368;87;21180;-75
2022/01/20 11:07:07;;;;;;;5.12;0.90;;;;;;;2.00;73.91;100195.92;1640492;87;21057;-74
2022/01/20 11:09:46;;;;;;;2.87;0.70;;;;;;;2.11;73.74;100186.81;1640818;87;21042;-75
2022/01/20 11:12:17;;;;;;;4.00;1.17;;;;;;;2.13;73.54;100199.28;1603941;87;21030;-74
2022/01/20 11:15:00;;;;;;;3.67;1.17;;;;;;;2.29;72.87;100183.68;1640823;85;21053;-75
2022/01/20 11:17:30;;;;;;;5.53;1.27;;;;;;;2.27;72.52;100203.52;1640578;87;21183;-75
2022/01/20 11:20:07;;;;;;;5.80;1.30;;;;;;;2.26;72.17;100181.97;1640779;87;21019;-74
2022/01/20 11:22:35;;;;;;;5.10;1.37;;;;;;;2.33;72.35;100186.25;1640496;87;21468;-75
2022/01/20 11:25:13;;;;;;;5.47;1.13;;;;;;;2.41;72.26;100175.82;1640181;87;21022;-75
2022/01/20 11:28:10;;;;;;;4.27;1.07;;;;;;;2.45;71.96;100188.73;1615169;87;21085;-76
2022/01/20 11:31:04;;;;;;;5.87;1.23;;;;;;;2.52;71.92;100184.80;1640512;87;21334;-76
2022/01/20 11:33:41;;;;;;;4.37;1.30;;;;;;;2.56;71.40;100186.06;1634108;87;22023;-76
2022/01/20 11:36:31;;;;;;;4.62;1.30;;;;;;;2.68;71.08;100162.66;1640932;87;21045;-75
2022/01/20 11:39:05;;;;;;;4.58;1.22;;;;;;;2.83;71.11;100176.37;1640581;87;21022;-75
2022/01/20 11:41:40;;;;;;;4.97;1.20;;;;;;;2.85;70.33;100176.75;1640638;87;21672;-77
2022/01/20 11:44:18;;;;;;;5.90;1.40;;;;;;;2.94;69.92;100191.36;1640498;87;21150;-75
2022/01/20 11:46:49;;;;;;;3.80;1.20;;;;;;;2.86;69.72;100169.87;1640267;87;21089;-76
2022/01/20 11:49:20;;;;;;;4.93;1.40;;;;;;;2.68;69.39;100194.16;1640711;87;21046;-75
2022/01/20 11:51:55;;;;;;;5.80;1.60;;;;;;;2.78;69.32;100189.34;1640711;87;21041;-76
2022/01/20 11:54:35;;;;;;;7.67;1.60;;;;;;;2.93;69.35;100184.89;1640681;87;21010;-77
2022/01/20 11:57:22;;;;;;;5.78;2.08;;;;;;;3.06;68.78;100183.47;1640642;87;21118;-76
2022/01/20 11:59:57;;;;;;;4.97;1.40;;;;;;;2.85;68.28;100196.16;1640703;87;21049;-77
2022/01/20 12:02:35;;;;;;;5.90;1.50;;;;;;;2.41;67.77;100187.46;1640421;87;21984;-76
2022/01/20 12:05:28;;;;;;;8.67;2.13;;;;;;;2.22;68.77;100185.02;1640847;87;21022;-76
2022/01/20 12:08:20;;;;;;;5.60;1.20;;;;;;;2.09;68.82;100187.25;1640051;87;21034;-76
2022/01/20 12:11:12;;;;;;;3.33;1.10;;;;;;;1.97;69.30;100184.75;1640511;87;21100;-76
2022/01/20 12:13:51;;;;;;;6.93;1.50;;;;;;;1.88;69.34;100183.05;1640738;87;21046;-77
2022/01/20 12:16:21;;;;;;;7.03;1.60;;;;;;;1.79;69.02;100184.39;1640487;87;21022;-76
2022/01/20 12:18:56;;;;;;;6.00;1.67;;;;;;;1.71;67.94;100189.59;1640871;87;21085;-77
2022/01/20 12:21:25;;;;;;;4.73;1.50;;;;;;;1.72;68.38;100207.27;1639919;85;21550;-77
2022/01/20 12:23:54;;;;;;;10.23;1.70;;;;;;;1.92;68.60;100204.15;1640705;87;21110;-77
2022/01/20 12:26:23;;;;;;;6.50;1.62;;;;;;;1.92;68.41;100213.63;1640553;87;21037;-77
2022/01/20 12:29:09;;;;;;;4.60;1.17;;;;;;;1.84;67.34;100205.05;1640775;87;22153;-76
2022/01/20 12:31:53;;;;;;;6.63;1.50;;;;;;;1.70;67.42;100211.57;1640590;87;21034;-77
2022/01/20 12:34:21;;;;;;;5.67;1.60;;;;;;;1.59;66.95;100204.30;1640721;87;21474;-77
2022/01/20 12:36:57;;;;;;;6.73;2.07;;;;;;;1.51;67.84;100209.05;1640352;87;21977;-77
2022/01/20 12:39:29;;;;;;;8.60;2.47;;;;;;;1.45;68.12;100203.91;1640397;87;22088;-76
2022/01/20 12:42:01;;;;;;;8.37;2.33;;;;;;;1.42;67.97;100210.37;1640539;87;21291;-77
2022/01/20 12:44:54;;;;;;;7.37;2.20;;;;;;;1.40;68.07;100206.92;1640541;87;21074;-77
2022/01/20 12:47:18;;;;;;;9.27;2.60;;;;;;;1.39;68.28;100199.20;1640333;87;21099;-77
2022/01/20 12:49:54;;;;;;;10.37;3.00;;;;;;;1.40;68.53;100197.03;1640441;87;21183;-77
2022/01/20 12:52:21;;;;;;;9.20;2.77;;;;;;;1.47;67.94;100212.92;1637045;87;20959;-77